createdAt,value
2018-04-13T00:00:07.843Z,13.88
2018-04-13T00:01:10.311Z,14.45
2018-04-13T00:02:13.568Z,15.73
2018-04-13T00:03:16.059Z,17.25
2018-04-13T00:04:18.535Z,25.00
2018-04-13T00:05:21.775Z,30.35
2018-04-13T00:06:24.243Z,31.42
2018-04-13T00:07:26.819Z,32.10
2018-04-13T00:08:29.315Z,31.15
2018-04-13T00:09:32.556Z,30.33
2018-04-13T00:10:35.035Z,30.10
2018-04-13T00:11:37.507Z,29.05
2018-04-13T00:12:41.484Z,29.10
2018-04-13T00:13:43.975Z,28.35
2018-04-13T00:14:47.211Z,28.98
2018-04-13T00:15:49.682Z,28.80
2018-04-13T00:16:52.150Z,30.60
2018-04-13T00:17:54.644Z,29.87
2018-04-13T00:18:57.131Z,28.62
2018-04-13T00:20:00.367Z,26.80
2018-04-13T00:21:02.854Z,26.90
2018-04-13T00:22:05.320Z,26.05
2018-04-13T00:23:07.791Z,24.17
2018-04-13T00:24:10.298Z,22.45
2018-04-13T00:25:12.763Z,22.40
2018-04-13T00:26:15.240Z,23.12
2018-04-13T00:27:17.708Z,22.67
2018-04-13T00:28:20.181Z,23.83
2018-04-13T00:29:22.679Z,23.77
2018-04-13T00:30:25.147Z,24.58
2018-04-13T00:31:28.385Z,25.27
2018-04-13T00:32:30.854Z,26.12
2018-04-13T00:33:33.324Z,24.25
2018-04-13T00:34:35.811Z,24.92
2018-04-13T00:35:38.280Z,25.25
2018-04-13T00:36:40.801Z,25.55
2018-04-13T00:37:43.267Z,25.27
2018-04-13T00:38:45.736Z,26.20
2018-04-13T00:39:48.233Z,26.80
2018-04-13T00:40:51.470Z,27.20
2018-04-13T00:41:54.164Z,26.50
2018-04-13T00:42:56.635Z,28.75
2018-04-13T00:43:59.103Z,29.90
2018-04-13T00:45:01.596Z,29.12
2018-04-13T00:46:04.832Z,28.83
2018-04-13T00:47:07.306Z,29.05
2018-04-13T00:48:09.771Z,30.35
2018-04-13T00:49:12.244Z,30.65
2018-04-13T00:50:14.788Z,32.22
2018-04-13T00:51:17.255Z,32.67
2018-04-13T00:52:19.736Z,31.62
2018-04-13T00:53:29.047Z,29.83
2018-04-13T00:54:31.812Z,28.42
2018-04-13T00:55:34.308Z,28.35
2018-04-13T00:56:36.779Z,25.50
2018-04-13T00:57:39.252Z,26.12
2018-04-13T00:58:41.724Z,25.27
2018-04-13T00:59:44.955Z,25.60
2018-04-13T01:00:47.477Z,25.62
2018-04-13T01:01:50.712Z,25.88
2018-04-13T01:02:53.183Z,23.70
2018-04-13T01:03:55.648Z,22.77
2018-04-13T01:04:58.124Z,20.75
2018-04-13T01:06:00.616Z,21.55
2018-04-13T01:07:03.854Z,22.08
2018-04-13T01:08:06.392Z,21.17
2018-04-13T01:09:08.869Z,20.35
2018-04-13T01:10:11.375Z,21.05
2018-04-13T01:11:14.282Z,21.48
2018-04-13T01:12:16.752Z,21.55
2018-04-13T01:13:19.224Z,21.35
2018-04-13T01:14:21.706Z,21.73
2018-04-13T01:15:24.172Z,18.95
2018-04-13T01:16:26.668Z,22.25
2018-04-13T01:17:29.140Z,22.48
2018-04-13T01:18:32.379Z,25.05
2018-04-13T01:19:34.847Z,25.27
2018-04-13T01:20:37.320Z,25.50
2018-04-13T01:21:39.808Z,27.60
2018-04-13T01:22:42.275Z,27.75
2018-04-13T01:23:44.743Z,29.63
2018-04-13T01:24:47.213Z,28.85
2018-04-13T01:25:49.680Z,28.40
2018-04-13T01:26:52.948Z,30.15
2018-04-13T01:27:55.417Z,29.10
2018-04-13T01:28:57.904Z,28.12
2018-04-13T01:30:01.416Z,28.02
2018-04-13T01:31:03.883Z,27.20
2018-04-13T01:32:06.392Z,28.35
2018-04-13T01:33:08.861Z,28.17
2018-04-13T01:34:11.332Z,28.62
2018-04-13T01:35:14.568Z,26.65
2018-04-13T01:36:17.040Z,27.55
2018-04-13T01:37:19.539Z,27.10
2018-04-13T01:38:22.847Z,27.37
2018-04-13T01:39:26.157Z,28.15
2018-04-13T01:40:28.624Z,27.73
2018-04-13T01:41:31.091Z,26.12
2018-04-13T01:42:33.592Z,26.73
2018-04-13T01:43:36.095Z,25.35
2018-04-13T01:44:39.404Z,26.12
2018-04-13T01:45:41.867Z,23.85
2018-04-13T01:46:44.336Z,24.83
2018-04-13T01:47:46.824Z,24.15
2018-04-13T01:48:49.292Z,23.67
2018-04-13T01:49:51.775Z,22.23
2018-04-13T01:50:55.803Z,22.98
2018-04-13T01:51:58.278Z,22.48
2018-04-13T01:53:00.764Z,22.73
2018-04-13T01:54:03.308Z,22.27
2018-04-13T01:55:05.780Z,22.52
2018-04-13T01:56:08.252Z,22.00
2018-04-13T01:57:10.735Z,22.42
2018-04-13T01:58:13.231Z,20.83
2018-04-13T01:59:15.700Z,21.30
2018-04-13T02:00:18.936Z,21.33
2018-04-13T02:01:21.408Z,20.92
2018-04-13T02:02:23.876Z,21.17
2018-04-13T02:03:26.380Z,18.67
2018-04-13T02:04:29.614Z,18.45
2018-04-13T02:05:32.083Z,18.85
2018-04-13T02:06:34.551Z,18.25
2018-04-13T02:07:37.020Z,18.52
2018-04-13T02:08:39.527Z,17.50
2018-04-13T02:09:42.767Z,18.60
2018-04-13T02:10:45.239Z,18.25
2018-04-13T02:11:47.717Z,18.20
2018-04-13T02:12:50.955Z,17.85
2018-04-13T02:13:53.607Z,16.83
2018-04-13T02:14:56.080Z,17.40
2018-04-13T02:15:58.558Z,17.65
2018-04-13T02:17:01.024Z,17.58
2018-04-13T02:18:03.492Z,17.65
2018-04-13T02:19:05.982Z,18.20
2018-04-13T02:20:08.452Z,17.83
2018-04-13T02:21:11.697Z,17.95
2018-04-13T02:22:14.159Z,17.92
2018-04-13T02:23:16.663Z,19.12
2018-04-13T02:24:19.152Z,17.92
2018-04-13T02:25:22.396Z,18.48
2018-04-13T02:26:24.864Z,18.15
2018-04-13T02:27:27.344Z,18.58
2018-04-13T02:28:29.823Z,19.20
2018-04-13T02:29:33.092Z,19.77
2018-04-13T02:30:35.567Z,20.23
2018-04-13T02:31:38.800Z,20.50
2018-04-13T02:32:41.271Z,20.33
2018-04-13T02:33:43.744Z,21.00
2018-04-13T02:34:46.232Z,20.88
2018-04-13T02:35:48.704Z,20.95
2018-04-13T02:36:51.175Z,20.90
2018-04-13T02:37:54.408Z,20.33
2018-04-13T02:38:56.880Z,19.62
2018-04-13T02:39:59.370Z,20.50
2018-04-13T02:41:01.844Z,21.00
2018-04-13T02:42:04.316Z,19.70
2018-04-13T02:43:07.555Z,19.77
2018-04-13T02:44:10.020Z,18.83
2018-04-13T02:45:12.512Z,19.55
2018-04-13T02:46:14.981Z,19.60
2018-04-13T02:47:17.455Z,20.52
2018-04-13T02:48:20.752Z,19.65
2018-04-13T02:49:24.012Z,20.62
2018-04-13T02:50:26.514Z,19.33
2018-04-13T02:51:29.037Z,19.33
2018-04-13T02:52:31.514Z,19.92
2018-04-13T02:53:34.748Z,19.25
2018-04-13T02:54:37.215Z,18.80
2018-04-13T02:55:39.911Z,18.98
2018-04-13T02:56:43.884Z,18.52
2018-04-13T02:57:46.372Z,19.20
2018-04-13T02:58:48.849Z,18.90
2018-04-13T02:59:52.104Z,18.48
2018-04-13T03:00:54.596Z,19.55
2018-04-13T03:01:58.573Z,20.08
2018-04-13T03:03:01.043Z,19.17
2018-04-13T03:04:03.512Z,18.17
2018-04-13T03:05:05.993Z,17.67
2018-04-13T03:06:08.479Z,19.02
2018-04-13T03:07:11.724Z,19.17
2018-04-13T03:08:14.196Z,18.90
2018-04-13T03:09:16.668Z,18.55
2018-04-13T03:10:19.138Z,17.35
2018-04-13T03:11:21.660Z,17.37
2018-04-13T03:12:24.173Z,17.62
2018-04-13T03:13:27.447Z,17.60
2018-04-13T03:14:29.937Z,17.62
2018-04-13T03:15:32.409Z,16.73
2018-04-13T03:16:34.904Z,17.55
2018-04-13T03:17:37.376Z,17.92
2018-04-13T03:18:39.849Z,17.65
2018-04-13T03:19:42.320Z,17.80
2018-04-13T03:20:44.792Z,18.12
2018-04-13T03:21:47.279Z,17.35
2018-04-13T03:22:50.536Z,17.08
2018-04-13T03:23:52.999Z,17.35
2018-04-13T03:24:55.473Z,17.85
2018-04-13T03:25:58.716Z,17.55
2018-04-13T03:27:01.210Z,18.83
2018-04-13T03:28:03.747Z,18.98
2018-04-13T03:29:06.255Z,17.75
2018-04-13T03:30:08.854Z,18.80
2018-04-13T03:31:11.332Z,19.62
2018-04-13T03:32:13.827Z,19.42
2018-04-13T03:33:16.300Z,19.02
2018-04-13T03:34:18.767Z,18.45
2018-04-13T03:35:21.236Z,19.65
2018-04-13T03:36:23.800Z,20.05
2018-04-13T03:37:26.296Z,19.15
2018-04-13T03:38:29.534Z,21.25
2018-04-13T03:39:32.012Z,20.98
2018-04-13T03:40:34.479Z,25.55
2018-04-13T03:41:36.944Z,30.02
2018-04-13T03:42:39.464Z,21.80
2018-04-13T03:43:41.932Z,21.20
2018-04-13T03:44:44.412Z,19.40
2018-04-13T03:45:46.880Z,19.87
2018-04-13T03:46:49.390Z,18.70
2018-04-13T03:47:52.648Z,18.45
2018-04-13T03:48:55.116Z,19.35
2018-04-13T03:49:57.624Z,17.45
2018-04-13T03:51:00.157Z,19.33
2018-04-13T03:52:02.672Z,17.65
2018-04-13T03:53:05.165Z,19.08
2018-04-13T03:54:07.640Z,18.08
2018-04-13T03:55:10.108Z,19.02
2018-04-13T03:56:12.593Z,19.02
2018-04-13T03:57:15.831Z,18.58
2018-04-13T03:58:18.485Z,18.48
2018-04-13T03:59:20.960Z,18.87
2018-04-13T04:00:23.428Z,19.35
2018-04-13T04:01:25.896Z,18.48
2018-04-13T04:02:28.364Z,19.20
2018-04-13T04:03:31.608Z,18.00
2018-04-13T04:04:34.080Z,17.35
2018-04-13T04:05:36.548Z,17.90
2018-04-13T04:06:39.644Z,19.37
2018-04-13T04:07:42.112Z,18.35
2018-04-13T04:08:44.619Z,17.55
2018-04-13T04:09:47.855Z,18.62
2018-04-13T04:10:50.324Z,17.87
2018-04-13T04:11:52.807Z,19.20
2018-04-13T04:12:55.316Z,18.85
2018-04-13T04:13:57.811Z,18.20
2018-04-13T04:15:00.279Z,19.15
2018-04-13T04:16:02.748Z,18.85
2018-04-13T04:17:05.223Z,18.80
2018-04-13T04:18:07.692Z,17.83
2018-04-13T04:19:10.955Z,18.80
2018-04-13T04:20:25.419Z,18.87
2018-04-13T04:21:39.863Z,18.48
2018-04-13T04:22:55.159Z,19.15
2018-04-13T04:24:10.276Z,19.05
2018-04-13T04:26:48.896Z,18.65
2018-04-13T04:27:51.906Z,19.70
2018-04-13T04:28:55.140Z,19.80
2018-04-13T04:29:57.672Z,18.33
2018-04-13T04:31:00.147Z,18.10
2018-04-13T04:32:02.624Z,18.10
2018-04-13T04:33:05.098Z,18.98
2018-04-13T04:34:07.573Z,18.65
2018-04-13T04:35:10.107Z,18.75
2018-04-13T04:36:12.580Z,18.60
2018-04-13T04:37:15.069Z,17.90
2018-04-13T04:38:17.544Z,19.62
2018-04-13T04:39:20.011Z,18.60
2018-04-13T04:40:22.506Z,18.65
2018-04-13T04:41:25.740Z,18.85
2018-04-13T04:42:28.209Z,19.98
2018-04-13T04:43:30.684Z,19.42
2018-04-13T04:44:33.164Z,19.27
2018-04-13T04:45:35.655Z,19.33
2018-04-13T04:46:38.127Z,18.67
2018-04-13T04:47:40.600Z,20.10
2018-04-13T04:48:43.134Z,19.12
2018-04-13T04:49:46.381Z,19.02
2018-04-13T04:50:48.875Z,20.17
2018-04-13T04:51:51.487Z,19.42
2018-04-13T04:52:53.960Z,19.98
2018-04-13T04:53:56.436Z,20.12
2018-04-13T04:54:58.908Z,19.30
2018-04-13T04:56:01.404Z,18.40
2018-04-13T04:57:03.876Z,19.50
2018-04-13T04:58:07.107Z,18.75
2018-04-13T04:59:09.589Z,18.60
2018-04-13T05:00:12.056Z,19.20
2018-04-13T05:01:14.548Z,19.45
2018-04-13T05:02:17.828Z,19.52
2018-04-13T05:03:20.264Z,20.30
2018-04-13T05:04:22.733Z,20.08
2018-04-13T05:05:25.212Z,18.77
2018-04-13T05:06:27.716Z,19.37
2018-04-13T05:07:30.187Z,19.98
2018-04-13T05:08:32.656Z,19.23
2018-04-13T05:09:35.123Z,19.30
2018-04-13T05:10:37.596Z,19.42
2018-04-13T05:11:40.103Z,19.48
2018-04-13T05:12:42.572Z,19.37
2018-04-13T05:13:45.836Z,22.00
2018-04-13T05:14:48.324Z,23.83
2018-04-13T05:15:51.559Z,22.02
2018-04-13T05:16:54.051Z,22.17
2018-04-13T05:17:56.580Z,21.15
2018-04-13T05:18:59.062Z,21.48
2018-04-13T05:20:01.571Z,19.30
2018-04-13T05:21:04.808Z,18.70
2018-04-13T05:22:07.304Z,18.50
2018-04-13T05:23:09.776Z,19.10
2018-04-13T05:24:13.012Z,19.23
2018-04-13T05:25:15.491Z,19.55
2018-04-13T05:26:18.390Z,20.10
2018-04-13T05:27:20.951Z,20.27
2018-04-13T05:28:24.193Z,19.80
2018-04-13T05:29:26.688Z,18.33
2018-04-13T05:30:29.156Z,18.55
2018-04-13T05:31:31.640Z,18.05
2018-04-13T05:32:34.924Z,17.35
2018-04-13T05:33:38.208Z,17.62
2018-04-13T05:34:40.672Z,17.48
2018-04-13T05:35:43.920Z,17.48
2018-04-13T05:36:46.395Z,17.12
2018-04-13T05:37:48.892Z,17.73
2018-04-13T05:38:52.128Z,16.70
2018-04-13T05:39:54.720Z,16.25
2018-04-13T05:40:57.229Z,15.55
2018-04-13T05:41:59.739Z,16.65
2018-04-13T05:43:02.240Z,15.98
2018-04-13T05:44:05.504Z,16.70
2018-04-13T05:45:07.972Z,17.08
2018-04-13T05:46:11.952Z,16.05
2018-04-13T05:47:14.427Z,16.62
2018-04-13T05:48:16.923Z,17.75
2018-04-13T05:49:19.436Z,17.48
2018-04-13T05:50:21.908Z,17.85
2018-04-13T05:51:24.392Z,17.52
2018-04-13T05:52:26.870Z,16.85
2018-04-13T05:53:30.131Z,16.30
2018-04-13T05:54:32.612Z,16.70
2018-04-13T05:55:35.850Z,17.02
2018-04-13T05:56:38.316Z,16.20
2018-04-13T05:57:40.816Z,17.00
2018-04-13T05:58:43.322Z,16.70
2018-04-13T05:59:45.803Z,17.58
2018-04-13T06:00:48.282Z,16.30
2018-04-13T06:01:50.748Z,16.00
2018-04-13T06:02:53.222Z,16.05
2018-04-13T06:03:55.716Z,16.75
2018-04-13T06:04:58.952Z,17.20
2018-04-13T06:06:01.465Z,17.10
2018-04-13T06:07:03.911Z,16.67
2018-04-13T06:08:06.409Z,17.25
2018-04-13T06:09:08.936Z,17.80
2018-04-13T06:10:11.416Z,17.75
2018-04-13T06:11:13.892Z,17.85
2018-04-13T06:12:16.378Z,16.87
2018-04-13T06:13:18.851Z,17.05
2018-04-13T06:14:21.347Z,16.98
2018-04-13T06:15:23.812Z,18.65
2018-04-13T06:16:26.290Z,18.40
2018-04-13T06:17:28.767Z,17.77
2018-04-13T06:18:31.240Z,18.20
2018-04-13T06:19:34.496Z,18.55
2018-04-13T06:20:36.967Z,18.15
2018-04-13T06:21:39.486Z,18.35
2018-04-13T06:22:42.048Z,18.50
2018-04-13T06:23:44.515Z,18.52
2018-04-13T06:24:47.008Z,19.58
2018-04-13T06:25:49.479Z,18.55
2018-04-13T06:26:52.513Z,19.67
2018-04-13T06:27:54.987Z,17.37
2018-04-13T06:28:57.464Z,18.37
2018-04-13T06:29:59.961Z,18.70
2018-04-13T06:31:02.432Z,20.00
2018-04-13T06:32:04.900Z,20.70
2018-04-13T06:33:07.367Z,20.83
2018-04-13T06:34:09.836Z,20.42
2018-04-13T06:35:13.441Z,18.87
2018-04-13T06:36:16.680Z,19.60
2018-04-13T06:37:19.198Z,19.17
2018-04-13T06:38:22.407Z,19.15
2018-04-13T06:39:24.884Z,20.27
2018-04-13T06:40:27.380Z,18.23
2018-04-13T06:41:29.849Z,19.20
2018-04-13T06:42:32.316Z,18.37
2018-04-13T06:43:35.555Z,17.83
2018-04-13T06:44:38.055Z,19.15
2018-04-13T06:45:40.580Z,18.90
2018-04-13T06:46:43.059Z,18.58
2018-04-13T06:47:45.540Z,18.45
2018-04-13T06:48:48.923Z,16.55
2018-04-13T06:49:51.336Z,18.05
2018-04-13T06:50:53.833Z,18.00
2018-04-13T06:51:56.300Z,17.23
2018-04-13T06:52:58.783Z,17.52
2018-04-13T06:54:01.256Z,18.60
2018-04-13T06:55:03.739Z,23.35
2018-04-13T06:56:07.080Z,25.33
2018-04-13T06:57:09.556Z,28.65
2018-04-13T06:58:12.035Z,21.17
2018-04-13T06:59:14.533Z,17.23
2018-04-13T07:00:17.024Z,16.85
2018-04-13T07:01:19.520Z,17.10
2018-04-13T07:02:21.992Z,15.50
2018-04-13T07:03:24.507Z,16.27
2018-04-13T07:04:26.983Z,15.25
2018-04-13T07:05:29.452Z,15.57
2018-04-13T07:06:31.948Z,15.65
2018-04-13T07:07:34.432Z,15.90
2018-04-13T07:08:37.664Z,16.30
2018-04-13T07:09:40.139Z,15.10
2018-04-13T07:10:42.647Z,16.35
2018-04-13T07:11:45.920Z,16.87
2018-04-13T07:12:49.167Z,16.52
2018-04-13T07:13:51.784Z,17.55
2018-04-13T07:14:55.016Z,18.60
2018-04-13T07:15:57.541Z,16.55
2018-04-13T07:17:00.036Z,16.35
2018-04-13T07:18:02.518Z,17.25
2018-04-13T07:19:04.984Z,16.35
2018-04-13T07:20:07.456Z,16.77
2018-04-13T07:21:10.012Z,17.02
2018-04-13T07:22:12.500Z,17.20
2018-04-13T07:23:15.009Z,17.42
2018-04-13T07:24:17.536Z,17.50
2018-04-13T07:25:20.783Z,17.83
2018-04-13T07:26:23.268Z,17.98
2018-04-13T07:27:25.767Z,17.75
2018-04-13T07:28:28.238Z,18.05
2018-04-13T07:29:30.712Z,19.70
2018-04-13T07:30:33.249Z,18.52
2018-04-13T07:31:36.486Z,18.23
2018-04-13T07:32:39.028Z,17.85
2018-04-13T07:33:41.772Z,17.45
2018-04-13T07:34:43.981Z,17.70
2018-04-13T07:35:46.488Z,19.27
2018-04-13T07:36:49.784Z,19.05
2018-04-13T07:37:53.044Z,18.27
2018-04-13T07:38:55.537Z,18.10
2018-04-13T07:39:57.992Z,18.55
2018-04-13T07:41:01.234Z,17.45
2018-04-13T07:42:03.708Z,18.33
2018-04-13T07:43:07.360Z,18.62
2018-04-13T07:44:09.863Z,18.73
2018-04-13T07:45:12.551Z,18.02
2018-04-13T07:46:14.858Z,19.50
2018-04-13T07:47:17.455Z,20.80
2018-04-13T07:48:19.885Z,19.37
2018-04-13T07:49:22.571Z,18.73
2018-04-13T07:50:24.847Z,18.42
2018-04-13T07:51:27.320Z,20.02
2018-04-13T07:52:29.852Z,20.17
2018-04-13T07:53:33.073Z,20.35
2018-04-13T07:54:35.540Z,19.80
2018-04-13T07:55:38.019Z,18.58
2018-04-13T07:56:41.284Z,20.23
2018-04-13T07:57:43.807Z,18.40
2018-04-13T07:58:46.300Z,19.02
2018-04-13T07:59:48.808Z,19.40
2018-04-13T08:00:52.051Z,19.73
2018-04-13T08:01:54.528Z,22.33
2018-04-13T08:02:57.501Z,20.73
2018-04-13T08:04:00.275Z,23.52
2018-04-13T08:05:02.784Z,24.10
2018-04-13T08:06:05.329Z,23.87
2018-04-13T08:07:08.643Z,23.48
2018-04-13T08:08:11.138Z,23.98
2018-04-13T08:09:13.712Z,24.30
2018-04-13T08:10:16.407Z,25.80
2018-04-13T08:11:19.440Z,25.27
2018-04-13T08:12:21.961Z,26.42
2018-04-13T08:13:24.391Z,27.15
2018-04-13T08:14:26.893Z,25.88
2018-04-13T08:15:29.408Z,25.42
2018-04-13T08:16:31.889Z,25.17
2018-04-13T08:17:34.360Z,25.23
2018-04-13T08:18:36.828Z,24.50
2018-04-13T08:19:40.112Z,24.33
2018-04-13T08:20:42.616Z,24.67
2018-04-13T08:21:45.088Z,24.60
2018-04-13T08:22:47.561Z,26.83
2018-04-13T08:23:50.035Z,30.85
2018-04-13T08:24:53.006Z,29.92
2018-04-13T08:25:55.516Z,29.45
2018-04-13T08:26:57.982Z,28.48
2018-04-13T08:28:01.408Z,29.52
2018-04-13T08:29:03.880Z,28.60
2018-04-13T08:30:06.392Z,26.77
2018-04-13T08:31:08.876Z,29.02
2018-04-13T08:32:12.112Z,28.10
2018-04-13T08:33:14.584Z,27.83
2018-04-13T08:34:17.313Z,28.65
2018-04-13T08:35:20.623Z,28.85
2018-04-13T08:36:23.091Z,28.52
2018-04-13T08:37:25.563Z,29.48
2018-04-13T08:38:28.032Z,29.30
2018-04-13T08:39:30.506Z,29.48
2018-04-13T08:40:33.764Z,29.90
2018-04-13T08:41:36.240Z,32.53
2018-04-13T08:42:38.751Z,30.52
2018-04-13T08:43:41.290Z,32.55
2018-04-13T08:44:43.713Z,33.60
2018-04-13T08:45:46.219Z,33.13
2018-04-13T08:46:48.694Z,30.73
2018-04-13T08:47:51.957Z,33.83
2018-04-13T08:48:54.543Z,35.38
2018-04-13T08:49:56.994Z,33.75
2018-04-13T08:51:00.367Z,34.10
2018-04-13T08:52:02.836Z,34.20
2018-04-13T08:53:05.869Z,33.70
2018-04-13T08:54:08.364Z,36.28
2018-04-13T08:55:10.832Z,33.08
2018-04-13T08:56:13.331Z,34.30
2018-04-13T08:57:16.588Z,34.92
2018-04-13T08:58:19.052Z,34.58
2018-04-13T08:59:21.521Z,32.20
2018-04-13T09:00:23.999Z,33.58
2018-04-13T09:01:29.029Z,36.92
2018-04-13T09:02:31.504Z,34.88
2018-04-13T09:03:34.738Z,35.03
2018-04-13T09:04:37.212Z,35.55
2018-04-13T09:05:39.709Z,35.72
2018-04-13T09:06:42.995Z,35.58
2018-04-13T09:07:46.231Z,35.80
2018-04-13T09:08:48.776Z,36.50
2018-04-13T09:09:51.244Z,35.08
2018-04-13T09:10:53.716Z,33.10
2018-04-13T09:11:56.236Z,35.05
2018-04-13T09:12:59.481Z,33.50
2018-04-13T09:14:02.011Z,31.77
2018-04-13T09:15:04.496Z,32.35
2018-04-13T09:16:06.974Z,32.95
2018-04-13T09:17:09.468Z,31.55
2018-04-13T09:18:11.940Z,34.25
2018-04-13T09:19:15.176Z,31.85
2018-04-13T09:20:17.655Z,32.85
2018-04-13T09:21:20.120Z,32.13
2018-04-13T09:22:22.750Z,32.10
2018-04-13T09:23:25.220Z,31.90
2018-04-13T09:24:27.696Z,30.98
2018-04-13T09:25:30.167Z,30.88
2018-04-13T09:26:32.639Z,30.60
2018-04-13T09:27:35.128Z,30.80
2018-04-13T09:28:37.612Z,27.65
2018-04-13T09:29:40.848Z,26.00
2018-04-13T09:30:43.323Z,27.98
2018-04-13T09:31:45.787Z,27.35
2018-04-13T09:32:48.309Z,27.33
2018-04-13T09:33:50.835Z,27.40
2018-04-13T09:34:53.432Z,24.52
2018-04-13T09:35:56.712Z,25.75
2018-04-13T09:36:59.951Z,27.52
2018-04-13T09:38:02.477Z,27.90
2018-04-13T09:39:04.952Z,25.62
2018-04-13T09:40:07.424Z,24.65
2018-04-13T09:41:09.926Z,23.60
2018-04-13T09:42:12.396Z,24.67
2018-04-13T09:43:14.899Z,22.58
2018-04-13T09:44:17.378Z,23.90
2018-04-13T09:45:19.848Z,23.67
2018-04-13T09:46:22.316Z,22.55
2018-04-13T09:47:25.595Z,21.08
2018-04-13T09:48:28.165Z,21.92
2018-04-13T09:49:30.635Z,20.08
2018-04-13T09:50:33.113Z,20.70
2018-04-13T09:51:35.592Z,19.33
2018-04-13T09:52:38.079Z,17.92
2018-04-13T09:53:41.387Z,18.35
2018-04-13T09:54:43.852Z,17.87
2018-04-13T09:55:46.324Z,17.75
2018-04-13T09:56:48.807Z,16.90
2018-04-13T09:57:51.282Z,16.05
2018-04-13T09:58:53.776Z,17.73
2018-04-13T09:59:56.244Z,17.45
2018-04-13T10:01:00.301Z,16.62
2018-04-13T10:02:02.782Z,15.93
2018-04-13T10:03:11.068Z,16.27
2018-04-13T10:04:13.563Z,15.90
2018-04-13T10:05:17.056Z,15.02
2018-04-13T10:06:20.316Z,14.65
2018-04-13T10:07:22.784Z,14.27
2018-04-13T10:08:25.314Z,13.48
2018-04-13T10:09:27.803Z,13.32
2018-04-13T10:10:30.295Z,14.73
2018-04-13T10:11:32.760Z,13.75
2018-04-13T10:12:35.376Z,13.00
2018-04-13T10:13:38.598Z,12.73
2018-04-13T10:14:41.088Z,12.20
2018-04-13T10:15:44.348Z,9.85
2018-04-13T10:16:46.823Z,10.60
2018-04-13T10:17:49.288Z,10.10
2018-04-13T10:18:51.765Z,10.48
2018-04-13T10:19:55.032Z,9.55
2018-04-13T10:20:57.499Z,9.35
2018-04-13T10:22:01.605Z,9.55
2018-04-13T10:23:04.071Z,8.07
2018-04-13T10:24:06.544Z,9.00
2018-04-13T10:25:09.840Z,8.00
2018-04-13T10:26:13.068Z,7.62
2018-04-13T10:27:16.267Z,8.25
2018-04-13T10:28:18.736Z,7.85
2018-04-13T10:29:21.211Z,9.07
2018-04-13T10:30:23.700Z,8.20
2018-04-13T10:31:26.284Z,7.82
2018-04-13T10:32:28.770Z,8.05
2018-04-13T10:33:31.244Z,8.10
2018-04-13T10:34:33.712Z,8.63
2018-04-13T10:35:36.212Z,8.57
2018-04-13T10:36:39.448Z,9.27
2018-04-13T10:37:41.924Z,8.68
2018-04-13T10:38:44.397Z,8.77
2018-04-13T10:39:46.864Z,9.32
2018-04-13T10:40:49.396Z,8.75
2018-04-13T10:41:51.860Z,8.63
2018-04-13T10:42:54.329Z,8.52
2018-04-13T10:43:56.860Z,8.85
2018-04-13T10:45:00.087Z,9.15
2018-04-13T10:46:02.591Z,8.85
2018-04-13T10:47:05.885Z,9.65
2018-04-13T10:48:09.212Z,9.45
2018-04-13T10:49:11.677Z,10.00
2018-04-13T10:50:14.152Z,9.88
2018-04-13T10:51:16.652Z,8.48
2018-04-13T10:52:19.888Z,9.43
2018-04-13T10:53:22.357Z,8.65
2018-04-13T10:54:24.829Z,9.30
2018-04-13T10:55:27.295Z,9.25
2018-04-13T10:56:29.788Z,9.30
2018-04-13T10:57:33.027Z,10.25
2018-04-13T10:58:35.519Z,8.45
2018-04-13T10:59:38.008Z,9.77
2018-04-13T11:00:41.247Z,10.23
2018-04-13T11:01:43.751Z,9.15
2018-04-13T11:02:46.999Z,9.23
2018-04-13T11:03:49.539Z,9.93
2018-04-13T11:04:52.019Z,9.38
2018-04-13T11:05:54.515Z,9.65
2018-04-13T11:06:57.035Z,8.98
2018-04-13T11:07:59.503Z,8.82
2018-04-13T11:09:01.968Z,9.13
2018-04-13T11:10:04.475Z,9.10
2018-04-13T11:11:07.015Z,8.68
2018-04-13T11:12:09.561Z,9.20
2018-04-13T11:13:12.027Z,8.80
2018-04-13T11:14:14.502Z,8.55
2018-04-13T11:15:16.975Z,8.88
2018-04-13T11:16:19.447Z,8.60
2018-04-13T11:17:21.935Z,8.60
2018-04-13T11:18:25.184Z,8.73
2018-04-13T11:19:27.660Z,8.25
2018-04-13T11:20:30.124Z,7.80
2018-04-13T11:21:32.603Z,6.62
2018-04-13T11:22:35.097Z,7.03
2018-04-13T11:23:38.328Z,6.55
2018-04-13T11:24:40.796Z,6.22
2018-04-13T11:25:43.259Z,6.35
2018-04-13T11:26:45.784Z,6.72
2018-04-13T11:27:48.322Z,8.45
2018-04-13T11:28:51.576Z,6.87
2018-04-13T11:29:54.863Z,6.45
2018-04-13T11:30:57.319Z,5.90
2018-04-13T11:31:59.784Z,6.30
2018-04-13T11:33:02.283Z,5.62
2018-04-13T11:34:05.523Z,5.50
2018-04-13T11:35:07.991Z,5.87
2018-04-13T11:36:10.460Z,5.43
2018-04-13T11:37:12.962Z,5.18
2018-04-13T11:38:16.228Z,5.32
2018-04-13T11:39:18.696Z,5.80
2018-04-13T11:40:21.161Z,5.85
2018-04-13T11:41:23.633Z,5.40
2018-04-13T11:42:26.864Z,5.53
2018-04-13T11:43:29.352Z,5.50
2018-04-13T11:44:31.815Z,5.07
2018-04-13T11:45:34.280Z,4.70
2018-04-13T11:46:36.760Z,4.62
2018-04-13T11:47:39.223Z,4.32
2018-04-13T11:48:41.707Z,4.82
2018-04-13T11:49:44.944Z,4.05
2018-04-13T11:50:47.429Z,4.15
2018-04-13T11:51:50.003Z,4.40
2018-04-13T11:52:52.440Z,4.68
2018-04-13T11:53:54.931Z,4.03
2018-04-13T11:54:57.395Z,4.78
2018-04-13T11:55:59.863Z,5.30
2018-04-13T11:57:02.368Z,4.28
2018-04-13T11:58:05.627Z,4.53
2018-04-13T11:59:08.924Z,4.70
2018-04-13T12:00:12.220Z,4.30
2018-04-13T12:01:15.320Z,4.95
2018-04-13T12:02:17.780Z,4.53
2018-04-13T12:03:20.260Z,4.60
2018-04-13T12:04:22.748Z,5.50
2018-04-13T12:05:25.975Z,4.90
2018-04-13T12:06:28.444Z,4.78
2018-04-13T12:07:30.922Z,5.20
2018-04-13T12:08:33.448Z,4.65
2018-04-13T12:09:36.708Z,4.37
2018-04-13T12:10:39.255Z,4.80
2018-04-13T12:11:41.720Z,4.57
2018-04-13T12:12:44.206Z,4.65
2018-04-13T12:13:46.668Z,4.80
2018-04-13T12:14:49.156Z,4.57
2018-04-13T12:15:52.409Z,4.47
2018-04-13T12:16:54.880Z,5.57
2018-04-13T12:17:57.399Z,4.40
2018-04-13T12:18:59.867Z,4.90
2018-04-13T12:20:02.376Z,4.90
2018-04-13T12:21:04.844Z,4.65
2018-04-13T12:22:07.308Z,4.65
2018-04-13T12:23:09.775Z,4.90
2018-04-13T12:24:12.792Z,4.32
2018-04-13T12:25:15.288Z,4.37
2018-04-13T12:26:17.760Z,4.53
2018-04-13T12:27:20.238Z,4.28
2018-04-13T12:28:22.700Z,4.70
2018-04-13T12:29:25.170Z,4.93
2018-04-13T12:30:27.677Z,4.37
2018-04-13T12:31:30.144Z,4.75
2018-04-13T12:32:32.605Z,4.43
2018-04-13T12:33:35.070Z,4.40
2018-04-13T12:34:37.557Z,4.35
2018-04-13T12:35:40.036Z,4.60
2018-04-13T12:36:42.520Z,4.60
2018-04-13T12:37:44.985Z,4.32
2018-04-13T12:38:47.452Z,4.68
2018-04-13T12:39:49.920Z,4.47
2018-04-13T12:40:52.408Z,4.30
2018-04-13T12:41:55.638Z,3.80
2018-04-13T12:42:58.100Z,4.43
2018-04-13T12:44:00.566Z,4.28
2018-04-13T12:45:03.028Z,4.20
2018-04-13T12:46:05.512Z,4.37
2018-04-13T12:47:07.986Z,4.43
2018-04-13T12:48:11.964Z,4.05
2018-04-13T12:49:14.435Z,4.10
2018-04-13T12:50:16.895Z,3.53
2018-04-13T12:51:19.492Z,4.87
2018-04-13T12:52:21.952Z,4.00
2018-04-13T12:53:24.480Z,3.87
2018-04-13T12:54:27.732Z,3.60
2018-04-13T12:55:30.162Z,3.85
2018-04-13T12:56:33.428Z,3.80
2018-04-13T12:57:35.895Z,3.70
2018-04-13T12:58:38.388Z,3.70
2018-04-13T12:59:41.612Z,3.42
2018-04-13T13:00:44.076Z,3.62
2018-04-13T13:01:46.560Z,3.05
2018-04-13T13:02:49.032Z,3.35
2018-04-13T13:03:51.504Z,3.25
2018-04-13T13:04:54.000Z,3.70
2018-04-13T13:05:57.235Z,3.83
2018-04-13T13:06:59.730Z,3.85
2018-04-13T13:08:02.960Z,4.00
2018-04-13T13:09:06.380Z,3.60
2018-04-13T13:10:08.847Z,3.30
2018-04-13T13:11:11.312Z,3.37
2018-04-13T13:12:13.865Z,3.20
2018-04-13T13:13:16.328Z,3.72
2018-04-13T13:14:18.815Z,3.62
2018-04-13T13:15:22.047Z,3.45
2018-04-13T13:16:24.511Z,2.97
2018-04-13T13:17:27.007Z,3.70
2018-04-13T13:18:29.519Z,3.30
2018-04-13T13:19:31.992Z,3.60
2018-04-13T13:20:34.495Z,3.35
2018-04-13T13:21:36.960Z,3.12
2018-04-13T13:22:39.479Z,3.83
2018-04-13T13:23:42.700Z,3.62
2018-04-13T13:24:45.176Z,3.25
2018-04-13T13:25:47.658Z,3.55
2018-04-13T13:26:50.150Z,3.53
2018-04-13T13:27:53.411Z,3.78
2018-04-13T13:28:56.651Z,3.65
2018-04-13T13:29:59.125Z,3.58
2018-04-13T13:31:01.597Z,3.60
2018-04-13T13:32:04.100Z,3.50
2018-04-13T13:33:07.371Z,4.30
2018-04-13T13:34:10.609Z,4.05
2018-04-13T13:35:13.100Z,3.85